sensor_id;sensor_type;location;lat;lon;timestamp;temperature;humidity
16767;DHT22;8501;49.926;8.404;2023-02-01T00:01:41;5.70;99.90
16767;DHT22;8501;49.926;8.404;2023-02-01T00:04:07;5.80;99.90
16767;DHT22;8501;49.926;8.404;2023-02-01T00:06:33;5.80;99.90
16767;DHT22;8501;49.926;8.404;2023-02-01T00:08:58;5.80;99.90
16767;DHT22;8501;49.926;8.404;2023-02-01T00:11:24;5.70;99.90
16767;DHT22;8501;49.926;8.404;2023-02-01T00:13:50;5.70;99.90
16767;DHT22;8501;49.926;8.404;2023-02-01T00:18:49;5.70;99.90
16767;DHT22;8501;49.926;8.404;2023-02-01T00:21:17;5.70;99.90
16767;DHT22;8501;49.926;8.404;2023-02-01T00:23:43;5.70;99.90
16767;DHT22;8501;49.926;8.404;2023-02-01T00:26:18;5.70;99.90
16767;DHT22;8501;49.926;8.404;2023-02-01T00:28:44;5.70;99.90
16767;DHT22;8501;49.926;8.404;2023-02-01T00:31:10;5.70;99.90
16767;DHT22;8501;49.926;8.404;2023-02-01T00:33:36;5.70;99.90
16767;DHT22;8501;49.926;8.404;2023-02-01T00:36:04;5.70;99.90
16767;DHT22;8501;49.926;8.404;2023-02-01T00:38:31;5.70;99.90
16767;DHT22;8501;49.926;8.404;2023-02-01T00:41:07;5.70;99.90
16767;DHT22;8501;49.926;8.404;2023-02-01T00:43:34;5.70;99.90
16767;DHT22;8501;49.926;8.404;2023-02-01T00:46:00;5.70;99.90
16767;DHT22;8501;49.926;8.404;2023-02-01T00:48:26;5.70;99.90
16767;DHT22;8501;49.926;8.404;2023-02-01T00:50:52;5.70;99.90
16767;DHT22;8501;49.926;8.404;2023-02-01T00:53:18;5.60;99.90
16767;DHT22;8501;49.926;8.404;2023-02-01T00:55:47;5.70;99.90
16767;DHT22;8501;49.926;8.404;2023-02-01T00:58:13;5.70;99.90
16767;DHT22;8501;49.926;8.404;2023-02-01T01:00:38;5.70;99.90
16767;DHT22;8501;49.926;8.404;2023-02-01T01:03:04;5.70;99.90
16767;DHT22;8501;49.926;8.404;2023-02-01T01:05:47;5.70;99.90
16767;DHT22;8501;49.926;8.404;2023-02-01T01:08:12;5.70;99.90
16767;DHT22;8501;49.926;8.404;2023-02-01T01:10:38;5.70;99.90
16767;DHT22;8501;49.926;8.404;2023-02-01T01:13:04;5.70;99.90
16767;DHT22;8501;49.926;8.404;2023-02-01T01:15:30;5.70;99.90
16767;DHT22;8501;49.926;8.404;2023-02-01T01:17:55;5.80;99.90
16767;DHT22;8501;49.926;8.404;2023-02-01T01:20:21;5.80;99.90
16767;DHT22;8501;49.926;8.404;2023-02-01T01:22:49;5.80;99.90
16767;DHT22;8501;49.926;8.404;2023-02-01T01:25:14;5.80;99.90
16767;DHT22;8501;49.926;8.404;2023-02-01T01:27:40;5.80;99.90
16767;DHT22;8501;49.926;8.404;2023-02-01T01:30:06;5.80;99.90
16767;DHT22;8501;49.926;8.404;2023-02-01T01:32:33;5.80;99.90
16767;DHT22;8501;49.926;8.404;2023-02-01T01:34:58;5.80;99.90
16767;DHT22;8501;49.926;8.404;2023-02-01T01:37:24;5.80;99.90
16767;DHT22;8501;49.926;8.404;2023-02-01T01:39:49;5.80;99.90
16767;DHT22;8501;49.926;8.404;2023-02-01T01:42:14;5.80;99.90
16767;DHT22;8501;49.926;8.404;2023-02-01T01:45:04;5.80;99.90
16767;DHT22;8501;49.926;8.404;2023-02-01T01:47:43;5.80;99.90
16767;DHT22;8501;49.926;8.404;2023-02-01T01:50:12;5.80;99.90
16767;DHT22;8501;49.926;8.404;2023-02-01T01:52:39;5.80;99.90
16767;DHT22;8501;49.926;8.404;2023-02-01T01:55:06;5.80;99.90
16767;DHT22;8501;49.926;8.404;2023-02-01T01:57:37;5.80;99.90
16767;DHT22;8501;49.926;8.404;2023-02-01T02:00:14;5.70;99.90
16767;DHT22;8501;49.926;8.404;2023-02-01T02:02:43;5.70;99.90
16767;DHT22;8501;49.926;8.404;2023-02-01T02:05:10;5.80;99.90
16767;DHT22;8501;49.926;8.404;2023-02-01T02:07:39;5.70;99.90
16767;DHT22;8501;49.926;8.404;2023-02-01T02:10:08;5.80;99.90
16767;DHT22;8501;49.926;8.404;2023-02-01T02:12:38;5.70;99.90
16767;DHT22;8501;49.926;8.404;2023-02-01T02:15:06;5.70;99.90
16767;DHT22;8501;49.926;8.404;2023-02-01T02:18:09;5.80;99.90
16767;DHT22;8501;49.926;8.404;2023-02-01T02:21:02;5.80;99.90
16767;DHT22;8501;49.926;8.404;2023-02-01T02:23:47;5.70;99.90
16767;DHT22;8501;49.926;8.404;2023-02-01T02:31:46;5.70;99.90
16767;DHT22;8501;49.926;8.404;2023-02-01T02:34:38;5.70;99.90
16767;DHT22;8501;49.926;8.404;2023-02-01T02:42:58;5.70;99.90
16767;DHT22;8501;49.926;8.404;2023-02-01T02:46:04;5.70;99.90
16767;DHT22;8501;49.926;8.404;2023-02-01T02:49:25;5.60;99.90
16767;DHT22;8501;49.926;8.404;2023-02-01T02:52:16;5.70;99.90
16767;DHT22;8501;49.926;8.404;2023-02-01T02:55:03;5.60;99.90
16767;DHT22;8501;49.926;8.404;2023-02-01T02:57:33;5.60;99.90
16767;DHT22;8501;49.926;8.404;2023-02-01T03:00:21;5.70;99.90
16767;DHT22;8501;49.926;8.404;2023-02-01T03:03:06;5.60;99.90
16767;DHT22;8501;49.926;8.404;2023-02-01T03:05:51;5.70;99.90
16767;DHT22;8501;49.926;8.404;2023-02-01T03:16:01;5.70;99.90
16767;DHT22;8501;49.926;8.404;2023-02-01T03:21:04;5.60;99.90
16767;DHT22;8501;49.926;8.404;2023-02-01T03:23:33;5.70;99.90
16767;DHT22;8501;49.926;8.404;2023-02-01T03:26:01;5.70;99.90
16767;DHT22;8501;49.926;8.404;2023-02-01T03:28:30;5.60;99.90
16767;DHT22;8501;49.926;8.404;2023-02-01T03:30:58;5.70;99.90
16767;DHT22;8501;49.926;8.404;2023-02-01T03:33:26;5.70;99.90
16767;DHT22;8501;49.926;8.404;2023-02-01T03:38:34;5.70;99.90
16767;DHT22;8501;49.926;8.404;2023-02-01T03:41:22;5.70;99.90
16767;DHT22;8501;49.926;8.404;2023-02-01T03:43:55;5.70;99.90
16767;DHT22;8501;49.926;8.404;2023-02-01T03:46:33;5.70;99.90
16767;DHT22;8501;49.926;8.404;2023-02-01T03:49:03;5.70;99.90
16767;DHT22;8501;49.926;8.404;2023-02-01T03:51:31;5.70;99.90
16767;DHT22;8501;49.926;8.404;2023-02-01T03:53:58;5.70;99.90
16767;DHT22;8501;49.926;8.404;2023-02-01T03:56:25;5.70;99.90
16767;DHT22;8501;49.926;8.404;2023-02-01T03:58:52;5.70;99.90
16767;DHT22;8501;49.926;8.404;2023-02-01T04:01:28;5.70;99.90
16767;DHT22;8501;49.926;8.404;2023-02-01T04:03:55;5.70;99.90
16767;DHT22;8501;49.926;8.404;2023-02-01T04:06:20;5.70;99.90
16767;DHT22;8501;49.926;8.404;2023-02-01T04:08:46;5.70;99.90
16767;DHT22;8501;49.926;8.404;2023-02-01T04:11:12;5.70;99.90
16767;DHT22;8501;49.926;8.404;2023-02-01T04:13:37;5.70;99.90
16767;DHT22;8501;49.926;8.404;2023-02-01T04:16:03;5.70;99.90
16767;DHT22;8501;49.926;8.404;2023-02-01T04:18:29;5.70;99.90
16767;DHT22;8501;49.926;8.404;2023-02-01T04:20:54;5.70;99.90
16767;DHT22;8501;49.926;8.404;2023-02-01T04:23:20;5.70;99.90
16767;DHT22;8501;49.926;8.404;2023-02-01T04:25:46;5.70;99.90
16767;DHT22;8501;49.926;8.404;2023-02-01T04:28:11;5.70;99.90
16767;DHT22;8501;49.926;8.404;2023-02-01T04:30:37;5.70;99.90
16767;DHT22;8501;49.926;8.404;2023-02-01T04:33:02;5.70;99.90
16767;DHT22;8501;49.926;8.404;2023-02-01T04:35:31;5.70;99.90
16767;DHT22;8501;49.926;8.404;2023-02-01T04:37:56;5.70;99.90
16767;DHT22;8501;49.926;8.404;2023-02-01T04:40:22;5.70;99.90
16767;DHT22;8501;49.926;8.404;2023-02-01T04:42:47;5.70;99.90
16767;DHT22;8501;49.926;8.404;2023-02-01T04:45:13;5.70;99.90
16767;DHT22;8501;49.926;8.404;2023-02-01T04:47:38;5.80;99.90
16767;DHT22;8501;49.926;8.404;2023-02-01T04:50:05;5.70;99.90
16767;DHT22;8501;49.926;8.404;2023-02-01T04:52:31;5.70;99.90
16767;DHT22;8501;49.926;8.404;2023-02-01T04:54:57;5.80;99.90
16767;DHT22;8501;49.926;8.404;2023-02-01T04:57:24;5.70;99.90
16767;DHT22;8501;49.926;8.404;2023-02-01T04:59:50;5.70;99.90
16767;DHT22;8501;49.926;8.404;2023-02-01T05:02:16;5.70;99.90
16767;DHT22;8501;49.926;8.404;2023-02-01T05:04:41;5.70;99.90
16767;DHT22;8501;49.926;8.404;2023-02-01T05:07:07;5.70;99.90
16767;DHT22;8501;49.926;8.404;2023-02-01T05:09:32;5.70;99.90
16767;DHT22;8501;49.926;8.404;2023-02-01T05:11:58;5.70;99.90
16767;DHT22;8501;49.926;8.404;2023-02-01T05:14:42;5.70;99.90
16767;DHT22;8501;49.926;8.404;2023-02-01T05:17:08;5.70;99.90
16767;DHT22;8501;49.926;8.404;2023-02-01T05:19:33;5.80;99.90
16767;DHT22;8501;49.926;8.404;2023-02-01T05:21:59;5.80;99.90
16767;DHT22;8501;49.926;8.404;2023-02-01T05:24:24;5.70;99.90
16767;DHT22;8501;49.926;8.404;2023-02-01T05:26:50;5.70;99.90
16767;DHT22;8501;49.926;8.404;2023-02-01T05:29:16;5.70;99.90
16767;DHT22;8501;49.926;8.404;2023-02-01T05:31:47;5.70;99.90
16767;DHT22;8501;49.926;8.404;2023-02-01T05:34:14;5.70;99.90
16767;DHT22;8501;49.926;8.404;2023-02-01T05:36:40;5.70;99.90
16767;DHT22;8501;49.926;8.404;2023-02-01T05:39:05;5.70;99.90
16767;DHT22;8501;49.926;8.404;2023-02-01T05:41:31;5.70;99.90
16767;DHT22;8501;49.926;8.404;2023-02-01T05:43:57;5.70;99.90
16767;DHT22;8501;49.926;8.404;2023-02-01T05:46:22;5.70;99.90
16767;DHT22;8501;49.926;8.404;2023-02-01T05:48:48;5.70;99.90
16767;DHT22;8501;49.926;8.404;2023-02-01T05:51:13;5.70;99.90
16767;DHT22;8501;49.926;8.404;2023-02-01T05:53:39;5.70;99.90
16767;DHT22;8501;49.926;8.404;2023-02-01T05:56:05;5.70;99.90
16767;DHT22;8501;49.926;8.404;2023-02-01T05:58:31;5.70;99.90
16767;DHT22;8501;49.926;8.404;2023-02-01T06:00:59;5.70;99.90
16767;DHT22;8501;49.926;8.404;2023-02-01T06:03:25;5.70;99.90
16767;DHT22;8501;49.926;8.404;2023-02-01T06:05:51;5.70;99.90
16767;DHT22;8501;49.926;8.404;2023-02-01T06:08:16;5.60;99.90
16767;DHT22;8501;49.926;8.404;2023-02-01T06:10:42;5.60;99.90
16767;DHT22;8501;49.926;8.404;2023-02-01T06:13:08;5.60;99.90
16767;DHT22;8501;49.926;8.404;2023-02-01T06:15:35;5.60;99.90
16767;DHT22;8501;49.926;8.404;2023-02-01T06:18:03;5.60;99.90
16767;DHT22;8501;49.926;8.404;2023-02-01T06:20:28;5.60;99.90
16767;DHT22;8501;49.926;8.404;2023-02-01T06:22:54;5.60;99.90
16767;DHT22;8501;49.926;8.404;2023-02-01T06:25:19;5.60;99.90
16767;DHT22;8501;49.926;8.404;2023-02-01T06:27:46;5.60;99.90
16767;DHT22;8501;49.926;8.404;2023-02-01T06:30:12;5.60;99.90
16767;DHT22;8501;49.926;8.404;2023-02-01T06:32:41;5.70;99.90
16767;DHT22;8501;49.926;8.404;2023-02-01T06:35:08;5.60;99.90
16767;DHT22;8501;49.926;8.404;2023-02-01T06:37:37;5.60;99.90
16767;DHT22;8501;49.926;8.404;2023-02-01T06:40:03;5.60;99.90
16767;DHT22;8501;49.926;8.404;2023-02-01T06:42:29;5.60;99.90
16767;DHT22;8501;49.926;8.404;2023-02-01T06:44:54;5.60;99.90
16767;DHT22;8501;49.926;8.404;2023-02-01T06:47:20;5.60;99.90
16767;DHT22;8501;49.926;8.404;2023-02-01T06:49:45;5.50;99.90
16767;DHT22;8501;49.926;8.404;2023-02-01T06:52:11;5.50;99.90
16767;DHT22;8501;49.926;8.404;2023-02-01T06:54:38;5.50;99.90
16767;DHT22;8501;49.926;8.404;2023-02-01T06:57:03;5.50;99.90
16767;DHT22;8501;49.926;8.404;2023-02-01T06:59:29;5.50;99.90
16767;DHT22;8501;49.926;8.404;2023-02-01T07:01:54;5.50;99.90
16767;DHT22;8501;49.926;8.404;2023-02-01T07:04:20;5.50;99.90
16767;DHT22;8501;49.926;8.404;2023-02-01T07:06:45;5.50;99.90
16767;DHT22;8501;49.926;8.404;2023-02-01T07:09:11;5.40;99.90
16767;DHT22;8501;49.926;8.404;2023-02-01T07:11:38;5.40;99.90
16767;DHT22;8501;49.926;8.404;2023-02-01T07:14:08;5.40;99.90
16767;DHT22;8501;49.926;8.404;2023-02-01T07:16:34;5.40;99.90
16767;DHT22;8501;49.926;8.404;2023-02-01T07:19:00;5.40;99.90
16767;DHT22;8501;49.926;8.404;2023-02-01T07:21:25;5.40;99.90
16767;DHT22;8501;49.926;8.404;2023-02-01T07:23:53;5.30;99.90
16767;DHT22;8501;49.926;8.404;2023-02-01T07:26:19;5.30;99.90
16767;DHT22;8501;49.926;8.404;2023-02-01T07:28:45;5.30;99.90
16767;DHT22;8501;49.926;8.404;2023-02-01T07:31:13;5.30;99.90
16767;DHT22;8501;49.926;8.404;2023-02-01T07:33:41;5.30;99.90
16767;DHT22;8501;49.926;8.404;2023-02-01T07:36:11;5.30;99.90
16767;DHT22;8501;49.926;8.404;2023-02-01T07:38:37;5.20;99.90
16767;DHT22;8501;49.926;8.404;2023-02-01T07:41:04;5.30;99.90
16767;DHT22;8501;49.926;8.404;2023-02-01T07:43:32;5.30;99.90
16767;DHT22;8501;49.926;8.404;2023-02-01T07:45:58;5.30;99.90
16767;DHT22;8501;49.926;8.404;2023-02-01T07:48:24;5.30;99.90
16767;DHT22;8501;49.926;8.404;2023-02-01T07:51:12;5.30;99.90
16767;DHT22;8501;49.926;8.404;2023-02-01T07:53:38;5.30;99.90
16767;DHT22;8501;49.926;8.404;2023-02-01T07:56:13;5.40;99.90
16767;DHT22;8501;49.926;8.404;2023-02-01T07:58:40;5.40;99.90
16767;DHT22;8501;49.926;8.404;2023-02-01T08:01:05;5.50;99.90
16767;DHT22;8501;49.926;8.404;2023-02-01T08:03:58;5.50;99.90
16767;DHT22;8501;49.926;8.404;2023-02-01T08:06:24;5.50;99.90
16767;DHT22;8501;49.926;8.404;2023-02-01T08:08:51;5.60;99.90
16767;DHT22;8501;49.926;8.404;2023-02-01T08:11:18;5.60;99.90
16767;DHT22;8501;49.926;8.404;2023-02-01T08:13:44;5.70;99.90
16767;DHT22;8501;49.926;8.404;2023-02-01T08:16:12;5.70;99.90
16767;DHT22;8501;49.926;8.404;2023-02-01T08:18:38;5.70;99.90
16767;DHT22;8501;49.926;8.404;2023-02-01T08:21:11;5.80;99.90
16767;DHT22;8501;49.926;8.404;2023-02-01T08:23:39;5.80;99.90
16767;DHT22;8501;49.926;8.404;2023-02-01T08:26:16;5.90;99.90
16767;DHT22;8501;49.926;8.404;2023-02-01T08:28:48;5.80;99.90
16767;DHT22;8501;49.926;8.404;2023-02-01T08:31:16;5.90;99.90
16767;DHT22;8501;49.926;8.404;2023-02-01T08:33:43;5.90;99.90
16767;DHT22;8501;49.926;8.404;2023-02-01T08:36:10;5.90;99.90
16767;DHT22;8501;49.926;8.404;2023-02-01T08:38:38;5.90;99.90
16767;DHT22;8501;49.926;8.404;2023-02-01T08:41:09;6.00;99.90
16767;DHT22;8501;49.926;8.404;2023-02-01T08:43:35;6.10;99.90
16767;DHT22;8501;49.926;8.404;2023-02-01T08:46:01;6.10;99.90
16767;DHT22;8501;49.926;8.404;2023-02-01T08:48:27;6.20;99.90
16767;DHT22;8501;49.926;8.404;2023-02-01T08:50:52;6.30;99.90
16767;DHT22;8501;49.926;8.404;2023-02-01T08:53:18;6.30;99.90
16767;DHT22;8501;49.926;8.404;2023-02-01T08:55:46;6.30;99.90
16767;DHT22;8501;49.926;8.404;2023-02-01T08:58:12;6.30;99.90
16767;DHT22;8501;49.926;8.404;2023-02-01T09:00:39;6.40;99.90
16767;DHT22;8501;49.926;8.404;2023-02-01T09:03:05;6.40;99.90
16767;DHT22;8501;49.926;8.404;2023-02-01T09:05:30;6.40;99.90
16767;DHT22;8501;49.926;8.404;2023-02-01T09:07:56;6.40;99.90
16767;DHT22;8501;49.926;8.404;2023-02-01T09:10:22;6.50;99.90
16767;DHT22;8501;49.926;8.404;2023-02-01T09:12:47;6.50;99.90
16767;DHT22;8501;49.926;8.404;2023-02-01T09:15:13;6.50;99.90
16767;DHT22;8501;49.926;8.404;2023-02-01T09:17:38;6.50;99.90
16767;DHT22;8501;49.926;8.404;2023-02-01T09:20:07;6.60;99.90
16767;DHT22;8501;49.926;8.404;2023-02-01T09:22:32;6.60;99.90
16767;DHT22;8501;49.926;8.404;2023-02-01T09:24:58;6.80;99.90
16767;DHT22;8501;49.926;8.404;2023-02-01T09:27:23;6.80;99.90
16767;DHT22;8501;49.926;8.404;2023-02-01T09:29:49;6.90;99.90
16767;DHT22;8501;49.926;8.404;2023-02-01T09:32:21;6.90;99.90
16767;DHT22;8501;49.926;8.404;2023-02-01T09:34:47;7.00;99.90
16767;DHT22;8501;49.926;8.404;2023-02-01T09:37:13;7.00;99.90
16767;DHT22;8501;49.926;8.404;2023-02-01T09:39:38;7.10;99.90
16767;DHT22;8501;49.926;8.404;2023-02-01T09:42:17;7.10;99.90
16767;DHT22;8501;49.926;8.404;2023-02-01T09:45:21;7.20;99.90
16767;DHT22;8501;49.926;8.404;2023-02-01T09:47:53;7.20;99.90
16767;DHT22;8501;49.926;8.404;2023-02-01T09:50:22;7.10;99.90
16767;DHT22;8501;49.926;8.404;2023-02-01T09:53:28;7.00;99.90
16767;DHT22;8501;49.926;8.404;2023-02-01T09:56:07;6.90;99.90
16767;DHT22;8501;49.926;8.404;2023-02-01T09:58:43;6.90;99.90
16767;DHT22;8501;49.926;8.404;2023-02-01T10:01:20;6.80;99.90
16767;DHT22;8501;49.926;8.404;2023-02-01T10:03:54;6.80;99.90
16767;DHT22;8501;49.926;8.404;2023-02-01T10:07:26;6.80;99.90
16767;DHT22;8501;49.926;8.404;2023-02-01T10:26:22;7.00;99.90
16767;DHT22;8501;49.926;8.404;2023-02-01T10:28:54;7.00;99.90
16767;DHT22;8501;49.926;8.404;2023-02-01T10:31:24;7.00;99.90
16767;DHT22;8501;49.926;8.404;2023-02-01T10:33:55;7.00;99.90
16767;DHT22;8501;49.926;8.404;2023-02-01T10:36:31;7.00;99.90
16767;DHT22;8501;49.926;8.404;2023-02-01T10:38:58;7.00;99.90
16767;DHT22;8501;49.926;8.404;2023-02-01T10:41:33;7.00;99.90
16767;DHT22;8501;49.926;8.404;2023-02-01T10:44:02;6.90;99.90
16767;DHT22;8501;49.926;8.404;2023-02-01T10:46:30;7.00;99.90
16767;DHT22;8501;49.926;8.404;2023-02-01T10:48:56;6.90;99.90
16767;DHT22;8501;49.926;8.404;2023-02-01T10:51:48;6.90;99.90
16767;DHT22;8501;49.926;8.404;2023-02-01T10:54:21;6.90;99.90
16767;DHT22;8501;49.926;8.404;2023-02-01T10:56:48;6.90;99.90
16767;DHT22;8501;49.926;8.404;2023-02-01T10:59:19;6.90;99.90
16767;DHT22;8501;49.926;8.404;2023-02-01T11:01:47;7.00;99.90
16767;DHT22;8501;49.926;8.404;2023-02-01T11:04:13;7.00;99.90
16767;DHT22;8501;49.926;8.404;2023-02-01T11:06:48;7.00;99.90
16767;DHT22;8501;49.926;8.404;2023-02-01T11:14:19;7.00;99.90
16767;DHT22;8501;49.926;8.404;2023-02-01T11:16:54;7.00;99.90
16767;DHT22;8501;49.926;8.404;2023-02-01T11:19:20;7.00;99.90
16767;DHT22;8501;49.926;8.404;2023-02-01T11:21:53;7.00;99.90
16767;DHT22;8501;49.926;8.404;2023-02-01T11:24:32;7.00;99.90
16767;DHT22;8501;49.926;8.404;2023-02-01T11:27:03;7.00;99.90
16767;DHT22;8501;49.926;8.404;2023-02-01T11:29:36;7.00;99.90
16767;DHT22;8501;49.926;8.404;2023-02-01T11:32:03;7.00;99.90
16767;DHT22;8501;49.926;8.404;2023-02-01T11:34:45;7.00;99.90
16767;DHT22;8501;49.926;8.404;2023-02-01T11:37:36;7.00;99.90
16767;DHT22;8501;49.926;8.404;2023-02-01T11:45:33;7.00;99.90
16767;DHT22;8501;49.926;8.404;2023-02-01T11:48:00;7.00;99.90
16767;DHT22;8501;49.926;8.404;2023-02-01T11:59:01;7.10;99.90
16767;DHT22;8501;49.926;8.404;2023-02-01T12:02:01;7.10;99.90
16767;DHT22;8501;49.926;8.404;2023-02-01T12:12:31;7.10;99.90
16767;DHT22;8501;49.926;8.404;2023-02-01T12:18:14;7.10;99.90
16767;DHT22;8501;49.926;8.404;2023-02-01T12:27:02;7.10;99.90
16767;DHT22;8501;49.926;8.404;2023-02-01T12:29:41;7.20;99.90
16767;DHT22;8501;49.926;8.404;2023-02-01T12:32:22;7.20;99.90
16767;DHT22;8501;49.926;8.404;2023-02-01T12:43:19;7.20;99.90
16767;DHT22;8501;49.926;8.404;2023-02-01T12:45:54;7.20;99.90
16767;DHT22;8501;49.926;8.404;2023-02-01T12:48:41;7.20;99.90
16767;DHT22;8501;49.926;8.404;2023-02-01T12:51:15;7.20;99.90
16767;DHT22;8501;49.926;8.404;2023-02-01T12:53:55;7.30;99.90
16767;DHT22;8501;49.926;8.404;2023-02-01T12:56:40;7.30;99.90
16767;DHT22;8501;49.926;8.404;2023-02-01T12:59:25;7.30;99.90
16767;DHT22;8501;49.926;8.404;2023-02-01T13:01:59;7.30;99.90
16767;DHT22;8501;49.926;8.404;2023-02-01T13:04:39;7.30;99.90
16767;DHT22;8501;49.926;8.404;2023-02-01T13:07:30;7.30;99.90
16767;DHT22;8501;49.926;8.404;2023-02-01T13:10:15;7.30;99.90
16767;DHT22;8501;49.926;8.404;2023-02-01T13:12:56;7.30;99.90
16767;DHT22;8501;49.926;8.404;2023-02-01T13:15:32;7.30;99.90
16767;DHT22;8501;49.926;8.404;2023-02-01T13:18:01;7.30;99.90
16767;DHT22;8501;49.926;8.404;2023-02-01T13:20:44;7.30;99.90
16767;DHT22;8501;49.926;8.404;2023-02-01T13:23:28;7.40;99.90
16767;DHT22;8501;49.926;8.404;2023-02-01T13:25:55;7.30;99.90
16767;DHT22;8501;49.926;8.404;2023-02-01T13:28:51;7.40;99.90
16767;DHT22;8501;49.926;8.404;2023-02-01T13:32:11;7.40;99.90
16767;DHT22;8501;49.926;8.404;2023-02-01T13:35:15;7.40;99.90
16767;DHT22;8501;49.926;8.404;2023-02-01T13:40:36;7.40;99.90
16767;DHT22;8501;49.926;8.404;2023-02-01T13:43:19;7.40;99.90
16767;DHT22;8501;49.926;8.404;2023-02-01T13:45:53;7.40;99.90
16767;DHT22;8501;49.926;8.404;2023-02-01T13:48:46;7.50;99.90
16767;DHT22;8501;49.926;8.404;2023-02-01T13:51:07;7.50;99.90
16767;DHT22;8501;49.926;8.404;2023-02-01T13:53:37;7.60;99.90
16767;DHT22;8501;49.926;8.404;2023-02-01T13:56:13;7.70;99.90
16767;DHT22;8501;49.926;8.404;2023-02-01T13:58:41;7.70;99.90
16767;DHT22;8501;49.926;8.404;2023-02-01T14:11:45;7.80;99.90
16767;DHT22;8501;49.926;8.404;2023-02-01T14:16:43;7.80;99.90
16767;DHT22;8501;49.926;8.404;2023-02-01T14:21:52;7.70;99.90
16767;DHT22;8501;49.926;8.404;2023-02-01T14:26:56;7.90;99.90
16767;DHT22;8501;49.926;8.404;2023-02-01T14:29:30;8.00;99.90
16767;DHT22;8501;49.926;8.404;2023-02-01T14:43:03;8.00;99.90
16767;DHT22;8501;49.926;8.404;2023-02-01T14:55:44;7.80;99.90
16767;DHT22;8501;49.926;8.404;2023-02-01T14:58:29;7.80;99.90
16767;DHT22;8501;49.926;8.404;2023-02-01T15:06:31;7.70;99.90
16767;DHT22;8501;49.926;8.404;2023-02-01T15:09:14;7.70;99.90
16767;DHT22;8501;49.926;8.404;2023-02-01T15:15:10;7.60;99.90
16767;DHT22;8501;49.926;8.404;2023-02-01T15:17:37;7.70;99.90
16767;DHT22;8501;49.926;8.404;2023-02-01T15:20:21;7.80;99.90
16767;DHT22;8501;49.926;8.404;2023-02-01T15:23:00;7.80;99.90
16767;DHT22;8501;49.926;8.404;2023-02-01T15:27:52;7.70;99.90
16767;DHT22;8501;49.926;8.404;2023-02-01T15:30:19;7.70;99.90
16767;DHT22;8501;49.926;8.404;2023-02-01T15:32:44;7.70;99.90
16767;DHT22;8501;49.926;8.404;2023-02-01T15:41:10;7.80;99.90
16767;DHT22;8501;49.926;8.404;2023-02-01T15:46:15;7.70;99.90
16767;DHT22;8501;49.926;8.404;2023-02-01T15:48:48;7.70;99.90
16767;DHT22;8501;49.926;8.404;2023-02-01T15:51:17;7.70;99.90
16767;DHT22;8501;49.926;8.404;2023-02-01T15:53:45;7.70;99.90
16767;DHT22;8501;49.926;8.404;2023-02-01T15:56:11;7.70;99.90
16767;DHT22;8501;49.926;8.404;2023-02-01T15:58:42;7.70;99.90
16767;DHT22;8501;49.926;8.404;2023-02-01T16:01:11;7.70;99.90
16767;DHT22;8501;49.926;8.404;2023-02-01T16:03:41;7.70;99.90
16767;DHT22;8501;49.926;8.404;2023-02-01T16:06:31;7.70;99.90
16767;DHT22;8501;49.926;8.404;2023-02-01T16:11:41;7.70;99.90
16767;DHT22;8501;49.926;8.404;2023-02-01T16:14:11;7.70;99.90
16767;DHT22;8501;49.926;8.404;2023-02-01T16:16:37;7.60;99.90
16767;DHT22;8501;49.926;8.404;2023-02-01T16:19:02;7.60;99.90
16767;DHT22;8501;49.926;8.404;2023-02-01T16:21:28;7.70;99.90
16767;DHT22;8501;49.926;8.404;2023-02-01T16:23:53;7.60;99.90
16767;DHT22;8501;49.926;8.404;2023-02-01T16:26:19;7.60;99.90
16767;DHT22;8501;49.926;8.404;2023-02-01T16:28:45;7.60;99.90
16767;DHT22;8501;49.926;8.404;2023-02-01T16:31:17;7.60;99.90
16767;DHT22;8501;49.926;8.404;2023-02-01T16:33:50;7.60;99.90
16767;DHT22;8501;49.926;8.404;2023-02-01T16:36:16;7.60;99.90
16767;DHT22;8501;49.926;8.404;2023-02-01T16:38:42;7.60;99.90
16767;DHT22;8501;49.926;8.404;2023-02-01T16:41:17;7.60;99.90
16767;DHT22;8501;49.926;8.404;2023-02-01T16:43:43;7.60;99.90
16767;DHT22;8501;49.926;8.404;2023-02-01T16:46:14;7.60;99.90
16767;DHT22;8501;49.926;8.404;2023-02-01T16:48:42;7.70;99.90
16767;DHT22;8501;49.926;8.404;2023-02-01T16:51:13;7.60;99.90
16767;DHT22;8501;49.926;8.404;2023-02-01T16:53:39;7.60;99.90
16767;DHT22;8501;49.926;8.404;2023-02-01T16:56:16;7.60;99.90
16767;DHT22;8501;49.926;8.404;2023-02-01T16:58:43;7.50;99.90
16767;DHT22;8501;49.926;8.404;2023-02-01T17:01:10;7.50;99.90
16767;DHT22;8501;49.926;8.404;2023-02-01T17:03:36;7.50;99.90
16767;DHT22;8501;49.926;8.404;2023-02-01T17:06:02;7.50;99.90
16767;DHT22;8501;49.926;8.404;2023-02-01T17:08:34;7.40;99.90
16767;DHT22;8501;49.926;8.404;2023-02-01T17:11:01;7.40;99.90
16767;DHT22;8501;49.926;8.404;2023-02-01T17:13:27;7.40;99.90
16767;DHT22;8501;49.926;8.404;2023-02-01T17:16:25;7.40;99.90
16767;DHT22;8501;49.926;8.404;2023-02-01T17:18:57;7.30;99.90
16767;DHT22;8501;49.926;8.404;2023-02-01T17:21:24;7.30;99.90
16767;DHT22;8501;49.926;8.404;2023-02-01T17:23:50;7.30;99.90
16767;DHT22;8501;49.926;8.404;2023-02-01T17:26:18;7.30;99.90
16767;DHT22;8501;49.926;8.404;2023-02-01T17:28:43;7.30;99.90
16767;DHT22;8501;49.926;8.404;2023-02-01T17:31:13;7.20;99.90
16767;DHT22;8501;49.926;8.404;2023-02-01T17:33:39;7.20;99.90
16767;DHT22;8501;49.926;8.404;2023-02-01T17:36:05;7.20;99.90
16767;DHT22;8501;49.926;8.404;2023-02-01T17:38:32;7.20;99.90
16767;DHT22;8501;49.926;8.404;2023-02-01T17:40:58;7.20;99.90
16767;DHT22;8501;49.926;8.404;2023-02-01T17:43:25;7.20;99.90
16767;DHT22;8501;49.926;8.404;2023-02-01T17:45:51;7.20;99.90
16767;DHT22;8501;49.926;8.404;2023-02-01T17:48:19;7.10;99.90
16767;DHT22;8501;49.926;8.404;2023-02-01T17:50:47;7.10;99.90
16767;DHT22;8501;49.926;8.404;2023-02-01T17:53:14;7.10;99.90
16767;DHT22;8501;49.926;8.404;2023-02-01T17:55:43;7.10;99.90
16767;DHT22;8501;49.926;8.404;2023-02-01T17:58:11;7.10;99.90
16767;DHT22;8501;49.926;8.404;2023-02-01T18:00:39;7.10;99.90
16767;DHT22;8501;49.926;8.404;2023-02-01T18:03:04;7.10;99.90
16767;DHT22;8501;49.926;8.404;2023-02-01T18:05:39;7.10;99.90
16767;DHT22;8501;49.926;8.404;2023-02-01T18:08:06;7.00;99.90
16767;DHT22;8501;49.926;8.404;2023-02-01T18:10:33;7.00;99.90
16767;DHT22;8501;49.926;8.404;2023-02-01T18:12:58;7.00;99.90
16767;DHT22;8501;49.926;8.404;2023-02-01T18:15:25;7.00;99.90
16767;DHT22;8501;49.926;8.404;2023-02-01T18:17:52;7.00;99.90
16767;DHT22;8501;49.926;8.404;2023-02-01T18:20:20;7.00;99.90
16767;DHT22;8501;49.926;8.404;2023-02-01T18:22:47;7.00;99.90
16767;DHT22;8501;49.926;8.404;2023-02-01T18:25:27;7.00;99.90
16767;DHT22;8501;49.926;8.404;2023-02-01T18:27:54;7.00;99.90
16767;DHT22;8501;49.926;8.404;2023-02-01T18:30:27;7.00;99.90
16767;DHT22;8501;49.926;8.404;2023-02-01T18:32:55;6.90;99.90
16767;DHT22;8501;49.926;8.404;2023-02-01T18:35:24;6.90;99.90
16767;DHT22;8501;49.926;8.404;2023-02-01T18:37:50;6.90;99.90
16767;DHT22;8501;49.926;8.404;2023-02-01T18:40:19;6.90;99.90
16767;DHT22;8501;49.926;8.404;2023-02-01T18:42:45;6.90;99.90
16767;DHT22;8501;49.926;8.404;2023-02-01T18:45:23;6.80;99.90
16767;DHT22;8501;49.926;8.404;2023-02-01T18:47:49;6.80;99.90
16767;DHT22;8501;49.926;8.404;2023-02-01T18:50:16;6.80;99.90
16767;DHT22;8501;49.926;8.404;2023-02-01T18:52:42;6.80;99.90
16767;DHT22;8501;49.926;8.404;2023-02-01T18:55:11;6.80;99.90
16767;DHT22;8501;49.926;8.404;2023-02-01T18:57:38;6.90;99.90